createdAt,value
2019-01-03T00:01:01.184Z,1009.17
2019-01-03T00:02:08.572Z,1009.13
2019-01-03T00:03:15.221Z,1009.18
2019-01-03T00:04:22.453Z,1009.21
2019-01-03T00:05:29.466Z,1009.16
2019-01-03T00:06:39.652Z,1009.17
2019-01-03T00:07:46.983Z,1009.11
2019-01-03T00:08:53.957Z,1009.12
2019-01-03T00:10:03.196Z,1009.07
2019-01-03T00:12:19.160Z,1009.11
2019-01-03T00:13:26.348Z,1009.16
2019-01-03T00:15:38.460Z,1009.09
2019-01-03T00:16:45.105Z,1009.04
2019-01-03T00:17:52.237Z,1009.10
2019-01-03T00:18:59.244Z,1009.11
2019-01-03T00:20:06.172Z,1009.13
2019-01-03T00:21:13.181Z,1009.14
2019-01-03T00:22:20.161Z,1009.10
2019-01-03T00:24:35.448Z,1009.12
2019-01-03T00:26:53.585Z,1009.14
2019-01-03T00:27:54.924Z,1009.20
2019-01-03T00:29:01.700Z,1009.15
2019-01-03T00:30:08.968Z,1009.21
2019-01-03T00:31:16.015Z,1009.25
2019-01-03T00:32:23.095Z,1009.27
2019-01-03T00:33:29.648Z,1009.17
2019-01-03T00:34:36.616Z,1009.23
2019-01-03T00:36:50.060Z,1009.17
2019-01-03T00:38:03.781Z,1009.26
2019-01-03T00:39:18.228Z,1009.24
2019-01-03T00:40:25.316Z,1009.19
2019-01-03T00:41:31.936Z,1009.19
2019-01-03T00:42:38.851Z,1009.23
2019-01-03T00:43:45.695Z,1009.30
2019-01-03T00:44:52.462Z,1009.22
2019-01-03T00:45:59.566Z,1009.17
2019-01-03T00:47:06.496Z,1009.27
2019-01-03T00:48:13.463Z,1009.32
2019-01-03T00:50:25.783Z,1009.25
2019-01-03T00:51:32.532Z,1009.20
2019-01-03T00:52:39.888Z,1009.30
2019-01-03T00:53:46.667Z,1009.26
2019-01-03T00:54:53.737Z,1009.31
2019-01-03T00:56:00.637Z,1009.24
2019-01-03T00:58:12.716Z,1009.27
2019-01-03T00:59:25.329Z,1009.32
2019-01-03T01:00:31.967Z,1009.33
2019-01-03T01:01:39.061Z,1009.36
2019-01-03T01:02:45.892Z,1009.38
2019-01-03T01:03:56.984Z,1009.38
2019-01-03T01:05:03.697Z,1009.44
2019-01-03T01:07:20.165Z,1009.43
2019-01-03T01:08:27.119Z,1009.36
2019-01-03T01:09:34.203Z,1009.38
2019-01-03T01:10:40.972Z,1009.41
2019-01-03T01:11:47.716Z,1009.41
2019-01-03T01:12:54.687Z,1009.35
2019-01-03T01:14:01.447Z,1009.42
2019-01-03T01:15:08.423Z,1009.49
2019-01-03T01:16:15.303Z,1009.44
2019-01-03T01:17:22.456Z,1009.41
2019-01-03T01:18:29.121Z,1009.40
2019-01-03T01:19:36.296Z,1009.47
2019-01-03T01:20:42.880Z,1009.41
2019-01-03T01:21:49.993Z,1009.45
2019-01-03T01:22:56.809Z,1009.45
2019-01-03T01:24:03.787Z,1009.52
2019-01-03T01:25:10.956Z,1009.51
2019-01-03T01:26:17.635Z,1009.57
2019-01-03T01:27:24.984Z,1009.56
2019-01-03T01:28:31.552Z,1009.50
2019-01-03T01:29:38.209Z,1009.52
2019-01-03T01:30:44.833Z,1009.59
2019-01-03T01:31:51.852Z,1009.53
2019-01-03T01:32:58.500Z,1009.57
2019-01-03T01:34:05.277Z,1009.65
2019-01-03T01:35:11.927Z,1009.60
2019-01-03T01:36:18.581Z,1009.66
2019-01-03T01:37:25.782Z,1009.72
2019-01-03T01:38:32.748Z,1009.63
2019-01-03T01:39:39.823Z,1009.76
2019-01-03T01:40:46.807Z,1009.66
2019-01-03T01:42:59.920Z,1009.69
2019-01-03T01:44:06.862Z,1009.74
2019-01-03T01:45:13.740Z,1009.72
2019-01-03T01:46:20.989Z,1009.80
2019-01-03T01:47:27.682Z,1009.73
2019-01-03T01:48:34.461Z,1009.69
2019-01-03T01:49:44.888Z,1009.66
2019-01-03T01:50:51.793Z,1009.77
2019-01-03T01:51:58.856Z,1009.68
2019-01-03T01:53:05.619Z,1009.74
2019-01-03T01:54:12.468Z,1009.70
2019-01-03T01:55:19.229Z,1009.70
2019-01-03T01:56:25.918Z,1009.75
2019-01-03T01:57:32.962Z,1009.78
2019-01-03T01:58:40.240Z,1009.76
2019-01-03T01:59:46.897Z,1009.78
2019-01-03T02:00:53.964Z,1009.68
2019-01-03T02:03:10.404Z,1009.75
2019-01-03T02:04:18.776Z,1009.76
2019-01-03T02:06:31.109Z,1009.80
2019-01-03T02:07:37.732Z,1009.73
2019-01-03T02:08:44.830Z,1009.80
2019-01-03T02:09:51.698Z,1009.72
2019-01-03T02:10:58.448Z,1009.70
2019-01-03T02:12:07.789Z,1009.69
2019-01-03T02:13:14.733Z,1009.73
2019-01-03T02:14:22.009Z,1009.66
2019-01-03T02:15:28.588Z,1009.69
2019-01-03T02:16:35.644Z,1009.70
2019-01-03T02:17:42.756Z,1009.64
2019-01-03T02:18:49.793Z,1009.60
2019-01-03T02:19:56.452Z,1009.61
2019-01-03T02:21:03.163Z,1009.69
2019-01-03T02:23:16.273Z,1009.70
2019-01-03T02:24:23.242Z,1009.65
2019-01-03T02:25:29.976Z,1009.66
2019-01-03T02:26:37.258Z,1009.69
2019-01-03T02:27:43.975Z,1009.70
2019-01-03T02:28:52.640Z,1009.70
2019-01-03T02:29:59.193Z,1009.63
2019-01-03T02:32:12.536Z,1009.72
2019-01-03T02:34:28.815Z,1009.78
2019-01-03T02:35:35.673Z,1009.72
2019-01-03T02:36:42.227Z,1009.68
2019-01-03T02:37:49.229Z,1009.67
2019-01-03T02:38:56.064Z,1009.63
2019-01-03T02:40:03.253Z,1009.64
2019-01-03T02:41:10.017Z,1009.58
2019-01-03T02:43:22.305Z,1009.60
2019-01-03T02:44:28.860Z,1009.51
2019-01-03T02:45:36.201Z,1009.54
2019-01-03T02:46:43.053Z,1009.56
2019-01-03T02:47:50.148Z,1009.55
2019-01-03T02:48:56.953Z,1009.56
2019-01-03T02:50:09.773Z,1009.53
2019-01-03T02:52:25.199Z,1009.57
2019-01-03T02:53:31.568Z,1009.57
2019-01-03T02:54:38.666Z,1009.70
2019-01-03T02:55:45.382Z,1009.61
2019-01-03T02:56:52.527Z,1009.65
2019-01-03T02:57:59.289Z,1009.68
2019-01-03T02:59:17.613Z,1009.69
2019-01-03T03:00:24.369Z,1009.69
2019-01-03T03:01:31.248Z,1009.69
2019-01-03T03:02:38.115Z,1009.72
2019-01-03T03:03:44.900Z,1009.75
2019-01-03T03:04:58.163Z,1009.70
2019-01-03T03:06:06.712Z,1009.65
2019-01-03T03:07:19.397Z,1009.68
2019-01-03T03:08:26.267Z,1009.68
2019-01-03T03:09:33.541Z,1009.67
2019-01-03T03:10:40.325Z,1009.66
2019-01-03T03:11:47.082Z,1009.67
2019-01-03T03:12:53.940Z,1009.64
2019-01-03T03:14:00.801Z,1009.64
2019-01-03T03:15:07.680Z,1009.65
2019-01-03T03:16:14.271Z,1009.75
2019-01-03T03:17:21.311Z,1009.69
2019-01-03T03:18:28.088Z,1009.65
2019-01-03T03:19:45.298Z,1009.64
2019-01-03T03:20:57.880Z,1009.63
2019-01-03T03:23:10.113Z,1009.61
2019-01-03T03:24:16.857Z,1009.59
2019-01-03T03:25:24.034Z,1009.47
2019-01-03T03:26:30.989Z,1009.59
2019-01-03T03:27:37.792Z,1009.55
2019-01-03T03:28:44.618Z,1009.54
2019-01-03T03:29:51.712Z,1009.60
2019-01-03T03:30:58.628Z,1009.52
2019-01-03T03:32:05.430Z,1009.55
2019-01-03T03:33:12.054Z,1009.52
2019-01-03T03:34:19.191Z,1009.46
2019-01-03T03:35:26.253Z,1009.42
2019-01-03T03:37:38.464Z,1009.45
2019-01-03T03:38:45.225Z,1009.37
2019-01-03T03:39:52.383Z,1009.46
2019-01-03T03:40:59.365Z,1009.44
2019-01-03T03:42:06.620Z,1009.39
2019-01-03T03:43:13.257Z,1009.34
2019-01-03T03:44:20.168Z,1009.45
2019-01-03T03:45:26.865Z,1009.39
2019-01-03T03:46:34.001Z,1009.47
2019-01-03T03:47:40.862Z,1009.37
2019-01-03T03:48:50.718Z,1009.30
2019-01-03T03:49:57.229Z,1009.37
2019-01-03T03:51:04.125Z,1009.38
2019-01-03T03:52:10.901Z,1009.31
2019-01-03T03:53:17.777Z,1009.30
2019-01-03T03:54:26.091Z,1009.20
2019-01-03T03:55:34.865Z,1009.19
2019-01-03T03:56:39.644Z,1009.22
2019-01-03T03:57:46.323Z,1009.12
2019-01-03T03:58:53.301Z,1009.10
2019-01-03T03:59:59.905Z,1009.02
2019-01-03T04:01:07.468Z,1009.04
2019-01-03T04:02:19.970Z,1009.06
2019-01-03T04:03:28.463Z,1009.04
2019-01-03T04:04:35.469Z,1009.13
2019-01-03T04:05:42.174Z,1009.14
2019-01-03T04:07:59.322Z,1009.03
2019-01-03T04:09:06.107Z,1008.99
2019-01-03T04:10:12.785Z,1009.00
2019-01-03T04:11:19.723Z,1008.83
2019-01-03T04:12:26.310Z,1008.90
2019-01-03T04:13:33.152Z,1008.88
2019-01-03T04:14:40.350Z,1008.83
2019-01-03T04:15:49.737Z,1008.75
2019-01-03T04:16:59.995Z,1008.71
2019-01-03T04:18:06.737Z,1008.75
2019-01-03T04:19:13.654Z,1008.70
2019-01-03T04:20:20.604Z,1008.71
2019-01-03T04:21:27.497Z,1008.64
2019-01-03T04:22:34.244Z,1008.67
2019-01-03T04:24:46.752Z,1008.67
2019-01-03T04:25:53.421Z,1008.64
2019-01-03T04:27:00.406Z,1008.63
2019-01-03T04:28:07.228Z,1008.61
2019-01-03T04:29:13.701Z,1008.66
2019-01-03T04:30:20.581Z,1008.62
2019-01-03T04:31:27.644Z,1008.75
2019-01-03T04:32:34.914Z,1008.71
2019-01-03T04:33:41.683Z,1008.65
2019-01-03T04:35:58.810Z,1008.62
2019-01-03T04:37:06.073Z,1008.66
2019-01-03T04:38:13.050Z,1008.68
2019-01-03T04:39:20.260Z,1008.62
2019-01-03T04:40:27.105Z,1008.65
2019-01-03T04:41:33.941Z,1008.69
2019-01-03T04:42:40.985Z,1008.70
2019-01-03T04:43:47.998Z,1008.70
2019-01-03T04:44:54.677Z,1008.73
2019-01-03T04:46:01.284Z,1008.76
2019-01-03T04:47:08.484Z,1008.69
2019-01-03T04:48:15.164Z,1008.74
2019-01-03T04:49:22.212Z,1008.72
2019-01-03T04:50:28.903Z,1008.74
2019-01-03T04:51:35.860Z,1008.76
2019-01-03T04:52:42.560Z,1008.81
2019-01-03T04:53:49.792Z,1008.78
2019-01-03T04:54:56.540Z,1008.86
2019-01-03T04:56:03.511Z,1008.75
2019-01-03T04:57:10.596Z,1008.82
2019-01-03T04:58:17.473Z,1008.83
2019-01-03T04:59:24.230Z,1008.82
2019-01-03T05:00:30.810Z,1008.84
2019-01-03T05:01:37.990Z,1008.91
2019-01-03T05:02:44.934Z,1008.73
2019-01-03T05:03:57.325Z,1008.73
2019-01-03T05:05:04.105Z,1008.80
2019-01-03T05:06:10.982Z,1008.83
2019-01-03T05:07:17.719Z,1008.76
2019-01-03T05:08:24.476Z,1008.79
2019-01-03T05:09:31.469Z,1008.70
2019-01-03T05:10:38.965Z,1008.65
2019-01-03T05:11:45.908Z,1008.69
2019-01-03T05:12:52.798Z,1008.76
2019-01-03T05:13:59.760Z,1008.80
2019-01-03T05:15:06.411Z,1008.79
2019-01-03T05:16:13.220Z,1008.80
2019-01-03T05:17:20.088Z,1008.80
2019-01-03T05:18:26.812Z,1008.85
2019-01-03T05:19:33.517Z,1008.76
2019-01-03T05:20:40.365Z,1008.78
2019-01-03T05:21:47.413Z,1008.78
2019-01-03T05:22:55.034Z,1008.82
2019-01-03T05:24:01.356Z,1008.88
2019-01-03T05:25:08.512Z,1008.91
2019-01-03T05:26:15.325Z,1008.88
2019-01-03T05:28:27.600Z,1008.89
2019-01-03T05:29:38.149Z,1008.84
2019-01-03T05:30:44.857Z,1008.89
2019-01-03T05:31:52.000Z,1008.84
2019-01-03T05:32:58.857Z,1008.85
2019-01-03T05:34:05.720Z,1008.79
2019-01-03T05:35:12.399Z,1008.92
2019-01-03T05:36:19.612Z,1008.89
2019-01-03T05:37:26.392Z,1008.91
2019-01-03T05:38:33.520Z,1008.91
2019-01-03T05:39:40.301Z,1008.86
2019-01-03T05:40:46.942Z,1008.86
2019-01-03T05:41:54.021Z,1008.99
2019-01-03T05:43:00.625Z,1008.91
2019-01-03T05:44:07.945Z,1008.92
2019-01-03T05:45:14.616Z,1008.81
2019-01-03T05:46:21.492Z,1008.78
2019-01-03T05:47:28.334Z,1008.76
2019-01-03T05:48:35.513Z,1008.75
2019-01-03T05:50:49.037Z,1008.77
2019-01-03T05:51:55.734Z,1008.73
2019-01-03T05:53:02.570Z,1008.79
2019-01-03T05:54:09.462Z,1008.75
2019-01-03T05:55:16.640Z,1008.74
2019-01-03T05:56:23.488Z,1008.76
2019-01-03T05:57:31.710Z,1008.80
2019-01-03T05:58:38.970Z,1008.79
2019-01-03T05:59:45.762Z,1008.88
2019-01-03T06:00:55.253Z,1008.93
2019-01-03T06:02:02.014Z,1008.89
2019-01-03T06:03:08.888Z,1008.92
2019-01-03T06:05:20.992Z,1008.92
2019-01-03T06:06:27.764Z,1008.94
2019-01-03T06:08:40.169Z,1008.85
2019-01-03T06:10:53.465Z,1008.89
2019-01-03T06:12:00.352Z,1008.89
2019-01-03T06:14:12.762Z,1008.90
2019-01-03T06:15:20.125Z,1008.89
2019-01-03T06:16:26.770Z,1008.99
2019-01-03T06:17:33.887Z,1008.92
2019-01-03T06:18:40.761Z,1008.97
2019-01-03T06:20:57.444Z,1008.97
2019-01-03T06:22:04.220Z,1008.90
2019-01-03T06:23:10.724Z,1008.97
2019-01-03T06:24:17.620Z,1008.91
2019-01-03T06:25:25.744Z,1008.95
2019-01-03T06:26:33.012Z,1008.84
2019-01-03T06:27:40.305Z,1008.88
2019-01-03T06:28:46.627Z,1008.88
2019-01-03T06:29:53.775Z,1008.95
2019-01-03T06:31:03.429Z,1008.95
2019-01-03T06:32:10.412Z,1008.90
2019-01-03T06:34:23.496Z,1008.89
2019-01-03T06:35:37.157Z,1008.85
2019-01-03T06:36:43.774Z,1008.87
2019-01-03T06:37:50.715Z,1008.87
2019-01-03T06:38:57.381Z,1008.84
2019-01-03T06:40:04.311Z,1008.81
2019-01-03T06:41:11.087Z,1008.74
2019-01-03T06:42:17.874Z,1008.79
2019-01-03T06:43:33.344Z,1008.82
2019-01-03T06:45:45.528Z,1008.84
2019-01-03T06:46:52.288Z,1008.79
2019-01-03T06:47:59.005Z,1008.81
2019-01-03T06:49:06.332Z,1008.87
2019-01-03T06:50:18.819Z,1008.87
2019-01-03T06:52:34.934Z,1008.76
2019-01-03T06:53:41.977Z,1008.71
2019-01-03T06:54:48.776Z,1008.80
2019-01-03T06:55:55.441Z,1008.78
2019-01-03T06:57:02.699Z,1008.82
2019-01-03T06:58:09.473Z,1008.80
2019-01-03T06:59:16.156Z,1008.84
2019-01-03T07:01:29.324Z,1008.89
2019-01-03T07:02:36.512Z,1008.81
2019-01-03T07:03:48.748Z,1008.77
2019-01-03T07:04:58.851Z,1008.76
2019-01-03T07:06:06.060Z,1008.83
2019-01-03T07:07:13.000Z,1008.86
2019-01-03T07:08:20.197Z,1008.86
2019-01-03T07:09:27.243Z,1008.90
2019-01-03T07:11:39.349Z,1008.89
2019-01-03T07:13:55.553Z,1008.87
2019-01-03T07:15:02.292Z,1008.95
2019-01-03T07:16:10.665Z,1008.92
2019-01-03T07:17:17.461Z,1008.88
2019-01-03T07:18:24.361Z,1008.87
2019-01-03T07:19:30.993Z,1008.91
2019-01-03T07:20:38.061Z,1008.87
2019-01-03T07:21:44.828Z,1008.96
2019-01-03T07:22:51.918Z,1008.95
2019-01-03T07:23:58.799Z,1008.94
2019-01-03T07:26:11.792Z,1009.01
2019-01-03T07:27:18.669Z,1008.98
2019-01-03T07:28:25.866Z,1008.99
2019-01-03T07:29:32.393Z,1009.00
2019-01-03T07:30:39.670Z,1009.03
2019-01-03T07:31:46.635Z,1009.07
2019-01-03T07:32:53.813Z,1009.02
2019-01-03T07:34:00.507Z,1008.96
2019-01-03T07:35:07.542Z,1008.94
2019-01-03T07:36:14.520Z,1008.97
2019-01-03T07:37:21.689Z,1008.99
2019-01-03T07:38:32.984Z,1009.03
2019-01-03T07:40:48.025Z,1009.04
2019-01-03T07:41:55.204Z,1009.23
2019-01-03T07:43:01.964Z,1009.09
2019-01-03T07:44:08.753Z,1009.23
2019-01-03T07:46:23.280Z,1009.22
2019-01-03T07:48:39.297Z,1009.18
2019-01-03T07:49:46.458Z,1009.24
2019-01-03T07:50:53.576Z,1009.23
2019-01-03T07:52:00.288Z,1009.18
2019-01-03T07:53:07.655Z,1009.16
2019-01-03T07:54:14.351Z,1009.19
2019-01-03T07:55:21.093Z,1009.15
2019-01-03T07:57:33.401Z,1009.21
2019-01-03T07:58:40.799Z,1009.11
2019-01-03T07:59:52.350Z,1009.08
2019-01-03T08:00:59.210Z,1009.15
2019-01-03T08:02:06.092Z,1009.11
2019-01-03T08:03:12.973Z,1009.15
2019-01-03T08:04:19.852Z,1009.24
2019-01-03T08:05:26.875Z,1009.26
2019-01-03T08:06:33.864Z,1009.20
2019-01-03T08:07:40.522Z,1009.25
2019-01-03T08:08:47.727Z,1009.27
2019-01-03T08:09:54.439Z,1009.26
2019-01-03T08:11:01.545Z,1009.22
2019-01-03T08:12:08.437Z,1009.23
2019-01-03T08:13:15.484Z,1009.27
2019-01-03T08:14:22.601Z,1009.21
2019-01-03T08:15:29.316Z,1009.22
2019-01-03T08:16:36.383Z,1009.17
2019-01-03T08:17:43.156Z,1009.15
2019-01-03T08:18:50.220Z,1009.14
2019-01-03T08:19:57.323Z,1009.25
2019-01-03T08:21:04.212Z,1009.27
2019-01-03T08:23:18.226Z,1009.22
2019-01-03T08:24:25.319Z,1009.24
2019-01-03T08:25:32.176Z,1009.19
2019-01-03T08:26:38.925Z,1009.22
2019-01-03T08:27:45.568Z,1009.23
2019-01-03T08:28:52.341Z,1009.26
2019-01-03T08:31:08.613Z,1009.28
2019-01-03T08:32:20.312Z,1009.28
2019-01-03T08:33:28.728Z,1009.32
2019-01-03T08:34:35.685Z,1009.31
2019-01-03T08:35:42.332Z,1009.37
2019-01-03T08:36:49.331Z,1009.38
2019-01-03T08:37:57.628Z,1009.41
2019-01-03T08:39:04.702Z,1009.33
2019-01-03T08:40:11.311Z,1009.33
2019-01-03T08:41:20.572Z,1009.13
2019-01-03T08:42:39.033Z,1009.23
2019-01-03T08:43:45.668Z,1009.17
2019-01-03T08:44:56.016Z,1009.12
2019-01-03T08:46:02.918Z,1009.16
2019-01-03T08:47:09.720Z,1009.14
2019-01-03T08:48:16.336Z,1009.16
2019-01-03T08:49:23.600Z,1009.22
2019-01-03T08:50:31.375Z,1009.18
2019-01-03T08:51:38.052Z,1009.16
2019-01-03T08:52:44.815Z,1009.18
2019-01-03T08:53:51.879Z,1009.14
2019-01-03T08:54:58.653Z,1009.21
2019-01-03T08:56:05.538Z,1009.20
2019-01-03T08:57:12.275Z,1009.22
2019-01-03T08:58:20.684Z,1009.27
2019-01-03T09:00:32.781Z,1009.22
2019-01-03T09:01:40.098Z,1009.42
2019-01-03T09:02:52.463Z,1009.43
2019-01-03T09:03:59.139Z,1009.39
2019-01-03T09:05:06.395Z,1009.53
2019-01-03T09:06:15.044Z,1009.54
2019-01-03T09:07:22.193Z,1009.56
2019-01-03T09:08:28.844Z,1009.50
2019-01-03T09:09:36.044Z,1009.55
2019-01-03T09:11:48.253Z,1009.59
2019-01-03T09:12:55.249Z,1009.72
2019-01-03T09:14:01.854Z,1009.70
2019-01-03T09:15:08.735Z,1009.70
2019-01-03T09:16:15.624Z,1009.57
2019-01-03T09:17:22.533Z,1009.55
2019-01-03T09:18:29.228Z,1009.49
2019-01-03T09:20:44.191Z,1009.53
2019-01-03T09:21:51.675Z,1009.57
2019-01-03T09:22:58.464Z,1009.56
2019-01-03T09:24:05.413Z,1009.55
2019-01-03T09:25:12.060Z,1009.46
2019-01-03T09:26:18.956Z,1009.51
2019-01-03T09:27:25.696Z,1009.42
2019-01-03T09:28:32.968Z,1009.40
2019-01-03T09:30:49.986Z,1009.36
2019-01-03T09:33:02.509Z,1009.40
2019-01-03T09:34:09.152Z,1009.53
2019-01-03T09:35:19.693Z,1009.49
2019-01-03T09:36:35.305Z,1009.58
2019-01-03T09:37:42.348Z,1009.56
2019-01-03T09:38:49.253Z,1009.56
2019-01-03T09:39:56.040Z,1009.56
2019-01-03T09:41:03.380Z,1009.52
2019-01-03T09:42:13.015Z,1009.52
2019-01-03T09:43:20.157Z,1009.46
2019-01-03T09:44:27.146Z,1009.58
2019-01-03T09:45:43.820Z,1009.63
2019-01-03T09:46:40.790Z,1009.68
2019-01-03T09:47:47.661Z,1009.66
2019-01-03T09:48:54.395Z,1009.57
2019-01-03T09:50:01.298Z,1009.62
2019-01-03T09:51:08.219Z,1009.57
2019-01-03T09:52:14.785Z,1009.69
2019-01-03T09:53:21.569Z,1009.66
2019-01-03T09:54:28.340Z,1009.77
2019-01-03T09:55:35.062Z,1009.66
2019-01-03T09:56:41.783Z,1009.68
2019-01-03T09:57:48.434Z,1009.65
2019-01-03T09:58:55.801Z,1009.68
2019-01-03T10:00:02.565Z,1009.69
2019-01-03T10:01:09.205Z,1009.76
2019-01-03T10:02:15.913Z,1009.74
2019-01-03T10:03:22.652Z,1009.73
2019-01-03T10:04:29.348Z,1009.75
2019-01-03T10:05:36.203Z,1009.71
2019-01-03T10:06:42.908Z,1009.72
2019-01-03T10:07:49.722Z,1009.69
2019-01-03T10:08:56.485Z,1009.67
2019-01-03T10:10:03.154Z,1009.66
2019-01-03T10:11:10.440Z,1009.59
2019-01-03T10:12:17.207Z,1009.54
2019-01-03T10:13:23.944Z,1009.50
2019-01-03T10:14:30.629Z,1009.57
2019-01-03T10:15:37.316Z,1009.55
2019-01-03T10:16:44.389Z,1009.57
2019-01-03T10:17:51.756Z,1009.58
2019-01-03T10:18:58.499Z,1009.53
2019-01-03T10:20:05.384Z,1009.50
2019-01-03T10:21:12.329Z,1009.52
2019-01-03T10:22:19.123Z,1009.50
2019-01-03T10:23:25.877Z,1009.44
2019-01-03T10:24:32.538Z,1009.51
2019-01-03T10:25:39.280Z,1009.51
2019-01-03T10:26:45.865Z,1009.48
2019-01-03T10:27:52.636Z,1009.44
2019-01-03T10:28:59.296Z,1009.44
2019-01-03T10:30:06.574Z,1009.43
2019-01-03T10:31:13.269Z,1009.42
2019-01-03T10:32:20.616Z,1009.52
2019-01-03T10:33:27.258Z,1009.37
2019-01-03T10:34:34.408Z,1009.40
2019-01-03T10:35:41.608Z,1009.40
2019-01-03T10:36:48.713Z,1009.34
2019-01-03T10:37:55.464Z,1009.37
2019-01-03T10:39:02.112Z,1009.42
2019-01-03T10:40:09.244Z,1009.35
2019-01-03T10:41:15.965Z,1009.33
2019-01-03T10:42:22.765Z,1009.42
2019-01-03T10:43:29.488Z,1009.43
2019-01-03T10:44:38.243Z,1009.38
2019-01-03T10:45:43.432Z,1009.28
2019-01-03T10:46:50.251Z,1009.30
2019-01-03T10:47:56.973Z,1009.30
2019-01-03T10:49:03.789Z,1009.31
2019-01-03T10:50:10.572Z,1009.29
2019-01-03T10:51:17.253Z,1009.25
2019-01-03T10:52:24.460Z,1009.30
2019-01-03T10:53:31.202Z,1009.31
2019-01-03T10:54:38.059Z,1009.29
2019-01-03T10:55:44.826Z,1009.25
2019-01-03T10:56:51.694Z,1009.21
2019-01-03T10:57:58.356Z,1009.25
2019-01-03T10:59:05.633Z,1009.22
2019-01-03T11:00:12.164Z,1009.17
2019-01-03T11:01:19.267Z,1009.19
2019-01-03T11:02:26.437Z,1009.16
2019-01-03T11:03:33.542Z,1009.11
2019-01-03T11:04:40.658Z,1009.16
2019-01-03T11:05:47.859Z,1009.12
2019-01-03T11:06:54.605Z,1009.10
2019-01-03T11:08:01.313Z,1009.07
2019-01-03T11:09:08.028Z,1009.17
2019-01-03T11:10:14.709Z,1009.12
2019-01-03T11:11:21.464Z,1009.04
2019-01-03T11:12:28.152Z,1009.10
2019-01-03T11:13:35.529Z,1009.00
2019-01-03T11:14:42.229Z,1008.98
2019-01-03T11:15:48.940Z,1008.99
2019-01-03T11:16:55.669Z,1008.96
2019-01-03T11:18:02.901Z,1009.04
2019-01-03T11:19:09.654Z,1008.97
2019-01-03T11:20:16.408Z,1008.97
2019-01-03T11:21:23.191Z,1008.98
2019-01-03T11:22:29.892Z,1008.84
2019-01-03T11:23:36.726Z,1008.90
2019-01-03T11:24:43.507Z,1008.86
2019-01-03T11:25:50.346Z,1008.86
2019-01-03T11:26:57.034Z,1008.87
2019-01-03T11:28:03.775Z,1008.80
2019-01-03T11:29:10.559Z,1008.77
2019-01-03T11:30:17.256Z,1008.75
2019-01-03T11:31:23.984Z,1008.72
2019-01-03T11:32:30.731Z,1008.68
2019-01-03T11:33:37.438Z,1008.68
2019-01-03T11:34:44.116Z,1008.65
2019-01-03T11:35:50.944Z,1008.67
2019-01-03T11:36:57.587Z,1008.63
2019-01-03T11:38:04.967Z,1008.59
2019-01-03T11:39:11.585Z,1008.60
2019-01-03T11:40:18.809Z,1008.55
2019-01-03T11:41:25.704Z,1008.55
2019-01-03T11:42:32.423Z,1008.55
2019-01-03T11:43:39.225Z,1008.45
2019-01-03T11:44:45.975Z,1008.44
2019-01-03T11:45:52.727Z,1008.48
2019-01-03T11:46:59.491Z,1008.50
2019-01-03T11:48:06.278Z,1008.45
2019-01-03T11:49:13.243Z,1008.34
2019-01-03T11:50:20.080Z,1008.37
2019-01-03T11:51:26.767Z,1008.32
2019-01-03T11:52:33.912Z,1008.33
2019-01-03T11:53:41.002Z,1008.32
2019-01-03T11:54:48.184Z,1008.34
2019-01-03T11:55:55.255Z,1008.34
2019-01-03T11:57:02.472Z,1008.34
2019-01-03T11:58:09.104Z,1008.34
2019-01-03T11:59:16.272Z,1008.24
2019-01-03T12:00:22.984Z,1008.32
2019-01-03T12:01:29.700Z,1008.32
2019-01-03T12:02:36.433Z,1008.24
2019-01-03T12:03:43.020Z,1008.22
2019-01-03T12:04:50.308Z,1008.25
2019-01-03T12:05:57.068Z,1008.19
2019-01-03T12:07:03.828Z,1008.19
2019-01-03T12:08:11.080Z,1008.21
2019-01-03T12:09:17.251Z,1008.25
2019-01-03T12:10:24.419Z,1008.21
2019-01-03T12:11:31.527Z,1008.27
2019-01-03T12:12:38.748Z,1008.27
2019-01-03T12:13:45.516Z,1008.25
2019-01-03T12:14:52.196Z,1008.20
2019-01-03T12:15:58.869Z,1008.27
2019-01-03T12:17:05.724Z,1008.20
2019-01-03T12:18:12.352Z,1008.23
2019-01-03T12:19:19.061Z,1008.24
2019-01-03T12:20:25.805Z,1008.16
2019-01-03T12:21:32.482Z,1008.22
2019-01-03T12:22:39.730Z,1008.20
2019-01-03T12:23:46.632Z,1008.24
2019-01-03T12:24:54.120Z,1008.26
2019-01-03T12:26:00.898Z,1008.23
2019-01-03T12:27:07.848Z,1008.22
2019-01-03T12:28:14.621Z,1008.18
2019-01-03T12:29:21.453Z,1008.23
2019-01-03T12:30:28.399Z,1008.19
2019-01-03T12:31:35.307Z,1008.20
2019-01-03T12:32:41.889Z,1008.25
2019-01-03T12:33:48.966Z,1008.27
2019-01-03T12:34:56.069Z,1008.21
2019-01-03T12:36:03.280Z,1008.22
2019-01-03T12:37:09.851Z,1008.24
2019-01-03T12:38:16.932Z,1008.27
2019-01-03T12:39:24.300Z,1008.35
2019-01-03T12:40:30.972Z,1008.35
2019-01-03T12:41:37.684Z,1008.23
2019-01-03T12:42:44.289Z,1008.34
2019-01-03T12:43:51.574Z,1008.32
2019-01-03T12:44:58.243Z,1008.28
2019-01-03T12:46:05.085Z,1008.34
2019-01-03T12:47:11.615Z,1008.36
2019-01-03T12:48:18.728Z,1008.32
2019-01-03T12:49:25.891Z,1008.40
2019-01-03T12:50:33.404Z,1008.39
2019-01-03T12:51:40.454Z,1008.41
2019-01-03T12:52:47.123Z,1008.35
2019-01-03T12:53:54.295Z,1008.37
2019-01-03T12:55:01.769Z,1008.40
2019-01-03T12:56:08.673Z,1008.36
2019-01-03T12:57:15.313Z,1008.48
2019-01-03T12:58:22.493Z,1008.37
2019-01-03T12:59:29.626Z,1008.39
2019-01-03T13:00:36.952Z,1008.34
2019-01-03T13:01:43.537Z,1008.36
2019-01-03T13:02:50.776Z,1008.29
2019-01-03T13:03:57.447Z,1008.26
2019-01-03T13:05:04.544Z,1008.19
2019-01-03T13:06:11.280Z,1008.15
2019-01-03T13:07:17.931Z,1008.17
2019-01-03T13:08:25.305Z,1008.13
2019-01-03T13:09:31.828Z,1008.14
2019-01-03T13:10:39.064Z,1008.09
2019-01-03T13:11:45.706Z,1008.08
2019-01-03T13:12:52.477Z,1008.16
2019-01-03T13:13:59.128Z,1008.14
2019-01-03T13:15:05.898Z,1008.14
2019-01-03T13:16:12.689Z,1008.15
2019-01-03T13:17:19.361Z,1008.01
2019-01-03T13:18:26.505Z,1008.05
2019-01-03T13:19:33.682Z,1008.12
2019-01-03T13:20:40.345Z,1008.06
2019-01-03T13:21:47.540Z,1008.06
2019-01-03T13:22:54.271Z,1008.10
2019-01-03T13:24:00.839Z,1008.13
2019-01-03T13:25:08.127Z,1008.14
2019-01-03T13:26:14.796Z,1008.23
2019-01-03T13:27:22.048Z,1008.09
2019-01-03T13:28:28.716Z,1008.15
2019-01-03T13:29:35.484Z,1008.13
2019-01-03T13:30:42.140Z,1008.18
2019-01-03T13:31:49.292Z,1008.16
2019-01-03T13:32:55.974Z,1008.15
2019-01-03T13:34:03.162Z,1008.09
2019-01-03T13:35:10.030Z,1008.12
2019-01-03T13:36:16.724Z,1008.11
2019-01-03T13:37:23.461Z,1008.19
2019-01-03T13:38:30.111Z,1008.17
2019-01-03T13:39:36.990Z,1008.25
2019-01-03T13:40:43.546Z,1008.18
2019-01-03T13:41:50.786Z,1008.25
2019-01-03T13:42:57.380Z,1008.36
2019-01-03T13:44:04.647Z,1008.35
2019-01-03T13:45:11.430Z,1008.38
2019-01-03T13:46:18.022Z,1008.45
2019-01-03T13:47:29.887Z,1008.44
2019-01-03T13:48:32.016Z,1008.45
2019-01-03T13:49:39.206Z,1008.54
2019-01-03T13:50:45.884Z,1008.44
2019-01-03T13:51:52.545Z,1008.43
2019-01-03T13:52:59.294Z,1008.44
2019-01-03T13:54:06.047Z,1008.35
2019-01-03T13:55:12.708Z,1008.27
2019-01-03T13:56:19.382Z,1008.35
2019-01-03T13:57:26.576Z,1008.23
2019-01-03T13:58:33.156Z,1008.31
2019-01-03T13:59:40.384Z,1008.24
2019-01-03T14:00:47.065Z,1008.16
2019-01-03T14:01:53.836Z,1008.16
2019-01-03T14:03:00.579Z,1008.14
2019-01-03T14:04:07.804Z,1008.16
2019-01-03T14:05:14.528Z,1008.13
2019-01-03T14:06:21.383Z,1008.24
2019-01-03T14:07:28.175Z,1008.16
2019-01-03T14:08:34.805Z,1008.11
2019-01-03T14:09:41.857Z,1008.14
2019-01-03T14:10:49.064Z,1008.15
2019-01-03T14:11:55.744Z,1008.12
2019-01-03T14:13:02.384Z,1008.10
2019-01-03T14:14:09.111Z,1008.21
2019-01-03T14:15:15.929Z,1008.15
2019-01-03T14:16:22.581Z,1008.27
2019-01-03T14:17:29.777Z,1008.32
2019-01-03T14:18:36.532Z,1008.38
2019-01-03T14:19:43.181Z,1008.37
2019-01-03T14:20:50.480Z,1008.47
2019-01-03T14:21:57.144Z,1008.51
2019-01-03T14:23:03.888Z,1008.46
2019-01-03T14:24:10.743Z,1008.51